Nearby METAR Reports

 

LIEA - Alghero, Italia
Updated: 11/07/2020 11:50
Clear
Clear
 Wind from varies
Wind: varies 6 km/h
Temperature: 30°C
Heat Index: 31°C
Dew Point: 19°C
Humidity: 52%
Barometer: 1015 hPa
Summary: Clear
Visibility: greater than 10 km
2020/07/11 09:50 LIEA 110950Z VRB03KT CAVOK 30/19 Q1015
LIEO - Olbia, Italia
Updated: 11/07/2020 11:50
Clear
Clear
 Wind from ENE
Wind: ENE 9 km/h
Temperature: 32°C
Dew Point: 12°C
Humidity: 29%
Barometer: 1014 hPa
Summary: Clear
Visibility: greater than 10 km
2020/07/11 09:50 LIEO 110950Z 07005KT 020V110 CAVOK 32/12 Q1014
 
LIEE - Cagliari, Italia
Updated: 11/07/2020 11:50
Clear
Clear
 Wind from WSW
Wind: WSW 7 km/h
Temperature: 33°C
Dew Point: 14°C
Humidity: 32%
Barometer: 1015 hPa
Summary: Clear
Visibility: greater than 10 km
2020/07/11 09:50 LIEE 110950Z 25004KT 190V310 CAVOK 33/14 Q1015